createdAt,value
2022-10-08T00:01:01.563Z,98917.31
2022-10-08T00:03:30.678Z,98908.09
2022-10-08T00:06:02.294Z,98907.03
2022-10-08T00:08:30.850Z,98904.31
2022-10-08T00:11:00.568Z,98907.75
2022-10-08T00:13:29.012Z,98897.25
2022-10-08T00:15:56.843Z,98900.59
2022-10-08T00:18:23.311Z,98899.88
2022-10-08T00:20:49.804Z,98899.81
2022-10-08T00:23:16.983Z,98897.41
2022-10-08T00:25:44.548Z,98899.81
2022-10-08T00:28:13.592Z,98900.59
2022-10-08T00:30:41.483Z,98905.59
2022-10-08T00:33:10.072Z,98902.75
2022-10-08T00:35:40.549Z,98887.66
2022-10-08T00:38:07.715Z,98886.16
2022-10-08T00:40:44.349Z,98883.28
2022-10-08T00:43:15.541Z,98887.34
2022-10-08T00:45:46.068Z,98893.38
2022-10-08T00:48:24.277Z,98885.97
2022-10-08T00:50:51.541Z,98871.78
2022-10-08T00:53:17.998Z,98868.56
2022-10-08T00:55:44.922Z,98868.41
2022-10-08T00:58:17.869Z,98861.91
2022-10-08T01:00:44.622Z,98867.47
2022-10-08T01:03:11.444Z,98865.41
2022-10-08T01:06:15.679Z,98863.34
2022-10-08T01:08:54.938Z,98863.91
2022-10-08T01:11:27.081Z,98864.22
2022-10-08T01:14:04.383Z,98854.25
2022-10-08T01:16:31.043Z,98867.63
2022-10-08T01:19:04.081Z,98866.22
2022-10-08T01:21:51.811Z,98863.91
2022-10-08T01:25:12.283Z,98862.88
2022-10-08T01:27:43.533Z,98863.91
2022-10-08T01:30:16.444Z,98852.84
2022-10-08T01:32:50.296Z,98857.06
2022-10-08T01:35:25.598Z,98859.69
2022-10-08T01:37:56.065Z,98853.41
2022-10-08T01:40:31.230Z,98841.09
2022-10-08T01:43:00.660Z,98846.41
2022-10-08T01:45:34.118Z,98851.31
2022-10-08T01:48:06.038Z,98835.91
2022-10-08T01:50:43.137Z,98858.41
2022-10-08T01:53:15.031Z,98857.13
2022-10-08T01:55:47.831Z,98856.03
2022-10-08T01:58:23.718Z,98851.81
2022-10-08T02:00:54.012Z,98855.47
2022-10-08T02:03:20.511Z,98854.13
2022-10-08T02:05:51.996Z,98857.22
2022-10-08T02:08:18.710Z,98850.94
2022-10-08T02:10:45.210Z,98853.56
2022-10-08T02:13:12.297Z,98857.28
2022-10-08T02:15:48.552Z,98849.66
2022-10-08T02:18:18.298Z,98849.97
2022-10-08T02:20:50.502Z,98854.91
2022-10-08T02:23:34.597Z,98846.47
2022-10-08T02:26:03.898Z,98846.25
2022-10-08T02:29:04.061Z,98841.50
2022-10-08T02:31:50.624Z,98853.41
2022-10-08T02:34:32.922Z,98840.75
2022-10-08T02:37:15.896Z,98851.25
2022-10-08T02:39:51.106Z,98853.63
2022-10-08T02:42:22.209Z,98847.59
2022-10-08T02:44:57.670Z,98846.78
2022-10-08T02:47:29.335Z,98842.03
2022-10-08T02:50:01.578Z,98847.06
2022-10-08T02:52:32.650Z,98844.66
2022-10-08T02:55:02.386Z,98839.91
2022-10-08T02:57:43.191Z,98837.97
2022-10-08T03:00:10.860Z,98848.38
2022-10-08T03:03:06.362Z,98846.06
2022-10-08T03:05:33.631Z,98851.31
2022-10-08T03:08:00.774Z,98853.84
2022-10-08T03:10:30.545Z,98853.34
2022-10-08T03:13:04.671Z,98857.91
2022-10-08T03:15:33.149Z,98849.81
2022-10-08T03:18:03.270Z,98849.47
2022-10-08T03:20:31.341Z,98854.97
2022-10-08T03:23:01.946Z,98857.00
2022-10-08T03:25:28.722Z,98856.06
2022-10-08T03:27:55.273Z,98845.34
2022-10-08T03:30:21.921Z,98853.75
2022-10-08T03:32:48.643Z,98849.31
2022-10-08T03:35:15.605Z,98849.81
2022-10-08T03:37:42.073Z,98847.41
2022-10-08T03:40:09.547Z,98847.66
2022-10-08T03:42:35.977Z,98847.09
2022-10-08T03:45:02.541Z,98849.22
2022-10-08T03:47:30.076Z,98852.66
2022-10-08T03:49:56.566Z,98853.63
2022-10-08T03:52:22.958Z,98850.19
2022-10-08T03:54:50.551Z,98858.38
2022-10-08T03:57:17.025Z,98863.13
2022-10-08T03:59:43.658Z,98867.69
2022-10-08T04:02:10.228Z,98863.00
2022-10-08T04:04:36.716Z,98862.22
2022-10-08T04:07:03.272Z,98862.13
2022-10-08T04:09:29.818Z,98867.13
2022-10-08T04:11:56.444Z,98863.59
2022-10-08T04:14:22.939Z,98869.78
2022-10-08T04:16:49.448Z,98871.56
2022-10-08T04:19:17.522Z,98874.59
2022-10-08T04:21:44.018Z,98864.75
2022-10-08T04:24:10.613Z,98865.94
2022-10-08T04:26:37.189Z,98873.31
2022-10-08T04:29:03.659Z,98875.22
2022-10-08T04:31:30.298Z,98865.84
2022-10-08T04:33:56.937Z,98869.81
2022-10-08T04:36:24.804Z,98866.75
2022-10-08T04:38:51.518Z,98866.78
2022-10-08T04:41:20.843Z,98870.13
2022-10-08T04:43:47.987Z,98871.97
2022-10-08T04:46:17.158Z,98876.50
2022-10-08T04:48:52.405Z,98882.16
2022-10-08T04:51:20.353Z,98877.31
2022-10-08T04:53:46.946Z,98880.50
2022-10-08T04:56:27.804Z,98881.78
2022-10-08T04:58:57.528Z,98877.56
2022-10-08T05:06:59.229Z,98894.78
2022-10-08T05:12:09.629Z,98895.97
2022-10-08T05:46:50.549Z,98905.00
2022-10-08T05:52:10.803Z,98910.66
2022-10-08T06:00:43.257Z,98909.84
2022-10-08T06:03:12.866Z,98926.16
2022-10-08T06:09:22.489Z,98933.63
2022-10-08T06:11:50.178Z,98935.06
2022-10-08T06:14:17.755Z,98929.03
2022-10-08T06:16:44.692Z,98936.97
2022-10-08T06:19:11.586Z,98933.88
2022-10-08T06:21:38.618Z,98937.19
2022-10-08T06:24:08.007Z,98940.66
2022-10-08T06:26:38.415Z,98943.28
2022-10-08T06:29:06.886Z,98939.13
2022-10-08T06:31:35.094Z,98947.59
2022-10-08T06:34:04.628Z,98955.78
2022-10-08T06:36:32.404Z,98959.84
2022-10-08T06:39:02.558Z,98963.72
2022-10-08T06:41:35.771Z,98955.78
2022-10-08T06:44:04.973Z,98955.84
2022-10-08T06:46:33.128Z,98963.91
2022-10-08T06:49:03.917Z,98960.31
2022-10-08T06:51:31.120Z,98952.47
2022-10-08T06:54:04.400Z,98958.56
2022-10-08T06:56:35.992Z,98965.56
2022-10-08T06:59:03.903Z,98957.41
2022-10-08T07:01:33.936Z,98961.22
2022-10-08T07:04:02.522Z,98962.88
2022-10-08T07:06:30.112Z,98964.19
2022-10-08T07:08:59.340Z,98974.38
2022-10-08T07:11:30.071Z,98965.78
2022-10-08T07:13:56.639Z,98971.56
2022-10-08T07:16:25.168Z,98961.91
2022-10-08T07:18:53.817Z,98957.19
2022-10-08T07:21:25.250Z,98958.16
2022-10-08T07:23:53.025Z,98953.16
2022-10-08T07:26:25.363Z,98951.56
2022-10-08T07:29:05.067Z,98955.03
2022-10-08T07:31:35.665Z,98962.66
2022-10-08T07:34:04.074Z,98960.16
2022-10-08T07:36:31.474Z,98964.81
2022-10-08T07:39:00.482Z,98962.69
2022-10-08T07:41:29.783Z,98967.16
2022-10-08T07:43:59.811Z,98966.59
2022-10-08T07:46:33.042Z,98970.31
2022-10-08T07:49:01.910Z,98966.38
2022-10-08T07:51:30.078Z,98967.16
2022-10-08T07:54:02.102Z,98968.16
2022-10-08T07:56:29.473Z,98973.84
2022-10-08T07:58:56.362Z,98984.53
2022-10-08T08:01:29.612Z,98977.34
2022-10-08T08:04:02.297Z,98989.38
2022-10-08T08:06:30.597Z,98993.59
2022-10-08T08:09:00.402Z,98992.28
2022-10-08T08:11:29.612Z,98989.91
2022-10-08T08:13:56.287Z,98999.13
2022-10-08T08:16:26.636Z,98996.25
2022-10-08T08:18:57.054Z,99006.00
2022-10-08T08:21:35.159Z,99003.63
2022-10-08T08:24:20.359Z,98999.16
2022-10-08T08:26:47.082Z,98992.94
2022-10-08T08:29:16.701Z,98996.97
2022-10-08T08:31:47.011Z,98991.66
2022-10-08T08:34:17.269Z,98983.88
2022-10-08T08:36:46.459Z,98993.88
2022-10-08T08:39:19.555Z,98996.16
2022-10-08T08:42:08.500Z,98993.97
2022-10-08T08:44:40.736Z,98978.59
2022-10-08T08:47:09.406Z,98980.97
2022-10-08T08:49:47.486Z,98978.50
2022-10-08T08:52:18.790Z,98979.75
2022-10-08T08:54:50.386Z,98981.03
2022-10-08T08:57:32.426Z,98982.28
2022-10-08T09:00:16.569Z,98987.78
2022-10-08T09:03:04.825Z,98991.31
2022-10-08T09:05:35.996Z,98993.06
2022-10-08T09:08:15.640Z,98994.19
2022-10-08T09:10:48.658Z,98992.53
2022-10-08T09:13:24.587Z,98984.53
2022-10-08T09:15:53.118Z,98977.50
2022-10-08T09:18:19.811Z,98980.78
2022-10-08T09:20:47.251Z,98984.66
2022-10-08T09:23:25.076Z,98985.75
2022-10-08T09:26:22.995Z,98996.34
2022-10-08T09:28:52.452Z,98997.66
2022-10-08T09:31:29.671Z,99000.50
2022-10-08T09:34:04.441Z,98997.00
2022-10-08T09:36:33.075Z,99005.38
2022-10-08T09:39:00.992Z,99002.75
2022-10-08T09:41:29.173Z,99012.38
2022-10-08T09:44:16.678Z,99022.00
2022-10-08T09:46:43.846Z,99021.56
2022-10-08T09:49:21.609Z,99012.88
2022-10-08T09:51:50.744Z,99019.97
2022-10-08T09:54:42.759Z,99017.28
2022-10-08T09:57:13.829Z,99014.56
2022-10-08T09:59:48.115Z,99020.47
2022-10-08T10:02:31.608Z,99026.63
2022-10-08T10:05:00.195Z,99025.25
2022-10-08T10:07:41.153Z,99028.78
2022-10-08T10:10:16.285Z,99028.78
2022-10-08T10:12:46.971Z,99037.44
2022-10-08T10:15:29.617Z,99048.53
2022-10-08T10:18:01.642Z,99044.31
2022-10-08T10:20:43.822Z,99042.41
2022-10-08T10:23:25.811Z,99042.50
2022-10-08T10:26:00.806Z,99040.94
2022-10-08T10:28:50.214Z,99029.03
2022-10-08T10:31:24.329Z,99026.13
2022-10-08T10:33:57.813Z,99030.34
2022-10-08T10:36:33.053Z,99037.47
2022-10-08T10:39:47.943Z,99044.31
2022-10-08T10:42:19.347Z,99042.19
2022-10-08T10:45:01.561Z,99046.13
2022-10-08T10:47:32.316Z,99049.00
2022-10-08T10:50:03.347Z,99046.09
2022-10-08T10:52:58.018Z,99049.06
2022-10-08T10:55:33.360Z,99047.63
2022-10-08T10:58:24.453Z,99052.44
2022-10-08T11:01:12.673Z,99045.31
2022-10-08T11:03:58.492Z,99043.75
2022-10-08T11:06:41.040Z,99041.91
2022-10-08T11:09:27.497Z,99046.97
2022-10-08T11:12:22.241Z,99046.16
2022-10-08T11:15:18.535Z,99057.25
2022-10-08T11:17:58.802Z,99049.88
2022-10-08T11:20:44.248Z,99041.19
2022-10-08T11:23:46.164Z,99042.22
2022-10-08T11:26:56.795Z,99054.88
2022-10-08T11:29:38.224Z,99053.31
2022-10-08T11:32:15.687Z,99060.44
2022-10-08T11:34:53.174Z,99056.75
2022-10-08T11:37:42.979Z,99049.31
2022-10-08T11:40:42.037Z,99057.97
2022-10-08T11:43:36.902Z,99052.47
2022-10-08T11:46:31.691Z,99058.25
2022-10-08T11:49:23.270Z,99060.38
2022-10-08T11:51:52.354Z,99053.78
2022-10-08T11:54:38.362Z,99055.91
2022-10-08T11:57:12.812Z,99058.03
2022-10-08T11:59:43.466Z,99051.16
2022-10-08T12:02:24.329Z,99053.81
2022-10-08T12:04:53.845Z,99055.66
2022-10-08T12:07:34.418Z,99048.81
2022-10-08T12:10:06.965Z,99045.13
2022-10-08T12:12:49.109Z,99036.69
2022-10-08T12:15:25.274Z,99036.72
2022-10-08T12:17:53.412Z,99031.41
2022-10-08T12:20:21.656Z,99039.03
2022-10-08T12:23:11.380Z,99040.91
2022-10-08T12:26:08.907Z,99035.03
2022-10-08T12:28:35.607Z,99031.34
2022-10-08T12:31:17.300Z,99038.84
2022-10-08T12:33:54.437Z,99044.88
2022-10-08T12:36:30.749Z,99050.91
2022-10-08T12:39:13.646Z,99032.69
2022-10-08T12:41:53.657Z,99043.28
2022-10-08T12:44:45.036Z,99035.94
2022-10-08T12:47:17.791Z,99036.72
2022-10-08T12:49:52.497Z,99035.63
2022-10-08T12:52:21.139Z,99033.03
2022-10-08T12:54:52.182Z,99031.72
2022-10-08T12:57:49.631Z,99034.41
2022-10-08T13:00:23.335Z,99041.06
2022-10-08T13:02:59.316Z,99036.13
2022-10-08T13:05:30.643Z,99026.38
2022-10-08T13:07:57.689Z,99035.38
2022-10-08T13:10:27.339Z,99045.72
2022-10-08T13:13:27.144Z,99046.72
2022-10-08T13:16:06.423Z,99044.63
2022-10-08T13:18:35.288Z,99043.28
2022-10-08T13:21:21.616Z,99048.03
2022-10-08T13:23:48.203Z,99053.31
2022-10-08T13:26:46.659Z,99063.09
2022-10-08T13:29:22.005Z,99061.97
2022-10-08T13:32:13.046Z,99063.03
2022-10-08T13:34:39.447Z,99056.59
2022-10-08T13:37:14.447Z,99063.28
2022-10-08T13:39:56.598Z,99067.47
2022-10-08T13:42:26.512Z,99066.13
2022-10-08T13:44:53.397Z,99059.28
2022-10-08T13:47:22.807Z,99070.63
2022-10-08T13:49:49.991Z,99061.88
2022-10-08T13:52:22.087Z,99071.97
2022-10-08T13:54:53.282Z,99076.94
2022-10-08T13:57:19.794Z,99072.88
2022-10-08T13:59:46.333Z,99067.16
2022-10-08T14:02:16.498Z,99065.84
2022-10-08T14:04:43.280Z,99060.88
2022-10-08T14:07:40.325Z,99065.38
2022-10-08T14:10:10.405Z,99061.69
2022-10-08T14:12:36.955Z,99065.19
2022-10-08T14:15:04.165Z,99057.53
2022-10-08T14:17:33.332Z,99057.00
2022-10-08T14:20:03.415Z,99059.09
2022-10-08T14:22:32.372Z,99049.03
2022-10-08T14:25:02.263Z,99048.81
2022-10-08T14:27:28.917Z,99044.84
2022-10-08T14:29:58.789Z,99052.28
2022-10-08T14:32:25.429Z,99048.31
2022-10-08T14:34:53.130Z,99040.38
2022-10-08T14:37:19.716Z,99062.56
2022-10-08T14:39:46.322Z,99051.69
2022-10-08T14:42:26.342Z,99050.91
2022-10-08T14:44:54.010Z,99052.00
2022-10-08T14:47:20.652Z,99045.41
2022-10-08T14:49:47.577Z,99042.97
2022-10-08T14:52:14.720Z,99045.00
2022-10-08T14:54:41.614Z,99048.91
2022-10-08T14:57:08.227Z,99054.59
2022-10-08T14:59:39.898Z,99059.06
2022-10-08T15:02:12.817Z,99055.38
2022-10-08T15:04:40.036Z,99058.84
2022-10-08T15:07:07.211Z,99061.78
2022-10-08T15:09:34.605Z,99059.47
2022-10-08T15:12:01.355Z,99070.81
2022-10-08T15:14:27.878Z,99065.72
2022-10-08T15:16:54.477Z,99062.00
2022-10-08T15:19:23.967Z,99073.50
2022-10-08T15:21:52.053Z,99083.75
2022-10-08T15:24:21.298Z,99077.69
2022-10-08T15:26:50.428Z,99081.69
2022-10-08T15:29:17.197Z,99084.78
2022-10-08T15:31:43.697Z,99086.84
2022-10-08T15:34:19.006Z,99094.16
2022-10-08T15:36:45.936Z,99097.22
2022-10-08T15:39:20.392Z,99092.97
2022-10-08T15:41:51.932Z,99092.97
2022-10-08T15:44:23.973Z,99100.84
2022-10-08T15:46:59.560Z,99098.50
2022-10-08T15:49:37.229Z,99108.22
2022-10-08T15:52:05.825Z,99114.03
2022-10-08T15:54:36.822Z,99114.88
2022-10-08T15:57:03.751Z,99112.50
2022-10-08T15:59:30.262Z,99117.75
2022-10-08T16:01:57.251Z,99124.50
2022-10-08T16:04:24.054Z,99126.00
2022-10-08T16:06:52.731Z,99143.16
2022-10-08T16:09:24.138Z,99129.63
2022-10-08T16:11:51.918Z,99140.03
2022-10-08T16:14:25.642Z,99141.00
2022-10-08T16:16:54.342Z,99148.84
2022-10-08T16:19:24.291Z,99150.38
2022-10-08T16:22:08.112Z,99150.13
2022-10-08T16:24:34.863Z,99151.75
2022-10-08T16:27:01.542Z,99155.16
2022-10-08T16:29:30.921Z,99161.63
2022-10-08T16:31:57.861Z,99158.69
2022-10-08T16:34:28.624Z,99163.66
2022-10-08T16:36:55.156Z,99169.13
2022-10-08T16:39:24.278Z,99170.38
2022-10-08T16:41:51.244Z,99181.88
2022-10-08T16:44:20.145Z,99187.31
2022-10-08T16:46:51.920Z,99188.06
2022-10-08T16:49:26.828Z,99187.75
2022-10-08T16:51:59.759Z,99196.91
2022-10-08T16:54:27.521Z,99197.06
2022-10-08T16:56:54.749Z,99200.91
2022-10-08T16:59:24.227Z,99209.16
2022-10-08T17:01:54.482Z,99213.47
2022-10-08T17:04:23.599Z,99216.81
2022-10-08T17:06:50.314Z,99218.16
2022-10-08T17:09:17.472Z,99222.56
2022-10-08T17:11:44.497Z,99229.66
2022-10-08T17:14:11.935Z,99229.06
2022-10-08T17:16:39.579Z,99240.31
2022-10-08T17:19:06.370Z,99239.78
2022-10-08T17:21:35.053Z,99240.50
2022-10-08T17:24:02.552Z,99251.81
2022-10-08T17:26:30.383Z,99246.81
2022-10-08T17:28:57.422Z,99253.22
2022-10-08T17:31:26.378Z,99258.44
2022-10-08T17:33:53.178Z,99264.53
2022-10-08T17:36:26.560Z,99271.63
2022-10-08T17:38:55.590Z,99270.28
2022-10-08T17:41:27.749Z,99269.72
2022-10-08T17:43:58.214Z,99275.78
2022-10-08T17:46:27.453Z,99282.63
2022-10-08T17:48:54.558Z,99291.19
2022-10-08T17:51:23.976Z,99289.94
2022-10-08T17:54:05.630Z,99291.97
2022-10-08T17:56:32.433Z,99295.75
2022-10-08T17:59:02.150Z,99301.81
2022-10-08T18:01:34.520Z,99305.31
2022-10-08T18:04:07.653Z,99309.44
2022-10-08T18:06:38.651Z,99311.84
2022-10-08T18:09:19.629Z,99319.47
2022-10-08T18:11:51.090Z,99320.25
2022-10-08T18:14:18.238Z,99330.63
2022-10-08T18:16:48.102Z,99326.41
2022-10-08T18:19:15.917Z,99323.44
2022-10-08T18:21:42.535Z,99332.22
2022-10-08T18:24:09.425Z,99335.94
2022-10-08T18:26:37.050Z,99343.13
2022-10-08T18:29:09.144Z,99339.09
2022-10-08T18:31:37.982Z,99342.66
2022-10-08T18:34:08.615Z,99351.06
2022-10-08T18:36:37.148Z,99350.25
2022-10-08T18:39:30.215Z,99353.56
2022-10-08T18:41:56.652Z,99363.34
2022-10-08T18:44:25.505Z,99373.03
2022-10-08T18:46:52.192Z,99368.31
2022-10-08T18:49:23.902Z,99374.72
2022-10-08T18:51:50.432Z,99366.31
2022-10-08T18:54:17.264Z,99381.56
2022-10-08T18:56:44.056Z,99386.47
2022-10-08T18:59:16.068Z,99384.72
2022-10-08T19:01:45.324Z,99398.47
2022-10-08T19:04:20.917Z,99390.91
2022-10-08T19:06:50.178Z,99390.34
2022-10-08T19:09:17.339Z,99402.28
2022-10-08T19:11:48.703Z,99402.94
2022-10-08T19:14:17.548Z,99408.53
2022-10-08T19:16:44.968Z,99398.94
2022-10-08T19:19:23.793Z,99406.16
2022-10-08T19:21:52.985Z,99401.56
2022-10-08T19:24:25.520Z,99411.03
2022-10-08T19:26:53.709Z,99409.78
2022-10-08T19:29:28.751Z,99413.22
2022-10-08T19:31:55.604Z,99420.25
2022-10-08T19:34:25.326Z,99419.16
2022-10-08T19:36:52.440Z,99427.06
2022-10-08T19:39:22.022Z,99440.16
2022-10-08T19:41:49.239Z,99443.63
2022-10-08T19:44:17.195Z,99444.66
2022-10-08T19:46:44.367Z,99441.25
2022-10-08T19:49:11.811Z,99450.31
2022-10-08T19:51:38.725Z,99453.22
2022-10-08T19:54:05.541Z,99451.66
2022-10-08T19:56:32.044Z,99461.59
2022-10-08T19:58:59.069Z,99470.63
2022-10-08T20:01:31.954Z,99466.06
2022-10-08T20:04:00.759Z,99468.47
2022-10-08T20:06:30.029Z,99476.13
2022-10-08T20:09:01.453Z,99479.13
2022-10-08T20:11:30.248Z,99475.78
2022-10-08T20:13:57.430Z,99483.63
2022-10-08T20:16:29.775Z,99477.84
2022-10-08T20:19:04.848Z,99492.38
2022-10-08T20:21:34.336Z,99491.78
2022-10-08T20:24:01.133Z,99488.94
2022-10-08T20:26:33.302Z,99501.63
2022-10-08T20:29:03.778Z,99500.25
2022-10-08T20:31:32.624Z,99510.91
2022-10-08T20:34:01.257Z,99505.28
2022-10-08T20:36:28.600Z,99509.66
2022-10-08T20:38:56.081Z,99507.25
2022-10-08T20:41:28.102Z,99508.22
2022-10-08T20:44:00.857Z,99505.50
2022-10-08T20:46:27.445Z,99509.75
2022-10-08T20:48:54.206Z,99507.75
2022-10-08T20:51:22.825Z,99510.59
2022-10-08T20:53:52.028Z,99514.22
2022-10-08T20:56:19.341Z,99516.88
2022-10-08T20:58:46.476Z,99516.69
2022-10-08T21:01:14.671Z,99526.53
2022-10-08T21:03:48.303Z,99527.75
2022-10-08T21:06:24.035Z,99524.56
2022-10-08T21:08:53.279Z,99518.53
2022-10-08T21:11:22.406Z,99520.19
2022-10-08T21:13:49.513Z,99524.41
2022-10-08T21:16:18.991Z,99527.44
2022-10-08T21:18:49.609Z,99535.25
2022-10-08T21:21:17.122Z,99533.25
2022-10-08T21:23:44.367Z,99532.66
2022-10-08T21:26:31.001Z,99529.03
2022-10-08T21:29:00.567Z,99533.47
2022-10-08T21:31:28.956Z,99529.44
2022-10-08T21:33:56.315Z,99525.81
2022-10-08T21:36:31.217Z,99529.25
2022-10-08T21:39:01.770Z,99539.31
2022-10-08T21:41:31.652Z,99547.94
2022-10-08T21:44:00.791Z,99550.56
2022-10-08T21:46:33.120Z,99537.47
2022-10-08T21:49:02.629Z,99537.06
2022-10-08T21:51:33.447Z,99541.09
2022-10-08T21:54:02.017Z,99541.91
2022-10-08T21:56:32.075Z,99554.34
2022-10-08T21:59:00.746Z,99558.97
2022-10-08T22:01:43.642Z,99553.72
2022-10-08T22:04:16.700Z,99552.91
2022-10-08T22:06:46.418Z,99555.31
2022-10-08T22:09:17.016Z,99555.72
2022-10-08T22:11:44.469Z,99558.94
2022-10-08T22:14:11.110Z,99558.13
2022-10-08T22:16:37.909Z,99555.50
2022-10-08T22:19:05.039Z,99564.75
2022-10-08T22:21:31.792Z,99559.06
2022-10-08T22:23:58.280Z,99562.31
2022-10-08T22:26:39.199Z,99568.69
2022-10-08T22:29:06.533Z,99560.63
2022-10-08T22:31:33.859Z,99567.06
2022-10-08T22:34:00.507Z,99563.88
2022-10-08T22:36:29.945Z,99562.66
2022-10-08T22:38:58.298Z,99567.16
2022-10-08T22:41:31.112Z,99561.66
2022-10-08T22:43:58.601Z,99566.25
2022-10-08T22:46:28.427Z,99564.84
2022-10-08T22:49:02.483Z,99563.25
2022-10-08T22:51:29.782Z,99569.72
2022-10-08T22:53:56.784Z,99572.97
2022-10-08T22:56:26.157Z,99575.34
2022-10-08T22:58:53.051Z,99572.75
2022-10-08T23:01:22.833Z,99572.16
2022-10-08T23:03:50.838Z,99578.94
2022-10-08T23:06:22.444Z,99583.72
2022-10-08T23:08:53.858Z,99583.88
2022-10-08T23:11:20.716Z,99582.91
2022-10-08T23:13:55.652Z,99581.94
2022-10-08T23:16:23.354Z,99585.25
2022-10-08T23:18:58.135Z,99589.97
2022-10-08T23:21:25.636Z,99583.88
2022-10-08T23:23:53.944Z,99588.53
2022-10-08T23:26:21.810Z,99595.81
2022-10-08T23:28:54.397Z,99597.47
2022-10-08T23:31:23.981Z,99584.03
2022-10-08T23:33:52.678Z,99586.19
2022-10-08T23:36:28.503Z,99590.03
2022-10-08T23:39:04.268Z,99590.84
2022-10-08T23:41:33.758Z,99592.81
2022-10-08T23:44:00.693Z,99589.59
2022-10-08T23:46:29.217Z,99583.59
2022-10-08T23:48:56.930Z,99591.84
2022-10-08T23:51:24.940Z,99585.25
2022-10-08T23:53:52.676Z,99590.53
2022-10-08T23:56:20.042Z,99589.78
2022-10-08T23:58:46.891Z,99588.03
